This is the latest recevied weather packets stored in our database for station/object DL7HMX-13. If no packets are shown the sender has not sent any weather packets the latest 10 day(s).
| Time | Temp. | Humidity | Pressure | Rain* | Wind** | Luminosity | Snow |
|---|---|---|---|---|---|---|---|
| 1777240225 | 9.44° C | 57% | 1022.5 hPa | 0 mm | - | 0 W/m² | - |
| 1777239629 | 9.44° C | 58% | 1022.5 hPa | 0 mm | - | 0 W/m² | - |
| 1777239031 | 9.44° C | 59% | 1022.6 hPa | 0 mm | - | 0 W/m² | - |
| 1777238417 | 10.56° C | 55% | 1022.5 hPa | 0 mm | - | 0 W/m² | - |
| 1777237820 | 10.56° C | 55% | 1022.4 hPa | 0 mm | - | 0 W/m² | - |
| 1777237222 | 10.56° C | 56% | 1022.5 hPa | 0 mm | - | 0 W/m² | - |
| 1777236626 | 10° C | 57% | 1022.4 hPa | 0 mm | - | 0 W/m² | - |
| 1777236029 | 11.11° C | 53% | 1022.4 hPa | 0 mm | - | 0 W/m² | - |
| 1777235432 | 11.11° C | 52% | 1022.3 hPa | 0 mm | - | 0 W/m² | - |
| 1777234832 | 11.11° C | 51% | 1022.3 hPa | 0 mm | - | 0 W/m² | - |
| 1777234230 | 11.67° C | 50% | 1022.2 hPa | 0 mm | - | 0 W/m² | - |
| 1777233630 | 12.22° C | 48% | 1022.1 hPa | 0 mm | - | 0 W/m² | - |
| 1777233032 | 12.78° C | 45% | 1022 hPa | 0 mm | - | 0 W/m² | - |
| 1777232417 | 12.78° C | 45% | 1021.9 hPa | 0 mm | - | 0 W/m² | - |
| 1777231818 | 12.78° C | 45% | 1021.9 hPa | 0 mm | - | 0 W/m² | - |
| 1777231221 | 12.78° C | 45% | 1021.7 hPa | 0 mm | - | 0 W/m² | - |
| 1777230624 | 13.33° C | 42% | 1021.7 hPa | 0 mm | - | 0 W/m² | - |
| 1777230025 | 13.33° C | 42% | 1021.6 hPa | 0 mm | - | 0 W/m² | - |
| 1777229426 | 13.89° C | 41% | 1021.6 hPa | 0 mm | - | 0 W/m² | - |
| 1777228826 | 14.44° C | 41% | 1021.4 hPa | 0 mm | - | 0 W/m² | - |
| 1777228228 | 15° C | 39% | 1021.2 hPa | 0 mm | - | 0 W/m² | - |
| 1777227628 | 15° C | 38% | 1021.1 hPa | 0 mm | - | 1 W/m² | - |
| 1777227030 | 15.56° C | 36% | 1021 hPa | 0 mm | - | 4 W/m² | - |
| 1777226416 | 15.56° C | 34% | 1020.8 hPa | 0 mm | - | 9 W/m² | - |
| 1777225820 | 16.11° C | 34% | 1020.6 hPa | 0 mm | - | 15 W/m² | - |
* Rain latest hour (hover to see other rain measurements)
** Current wind speed in m/s (hover to see current wind gust speed)